Белая

Карта отелей и гостиниц, располагающихся рядом с аэропортом Белая :

Белая Иркутская область 52° 54' 54.8388" N, 103° 34' 30.36" E
Белая Иркутская область 52° 54' 54.8388" N, 103° 34' 30.36" E
Код аэродрома ИКАО
UIIB
Код аэродрома RU
УИИБ
Координаты
N52.91523° E103.57510°
Превышение над уровнем моря
457
Основная полоса
15/33
Курс магнитный
147,5/327,5
Длина основной ВПП
4000
Ширина основной ВПП
80
Покрытие основной ВПП
Твёрдое
Освещение ВПП
Постоянное
Тип: 
Аэродром
Класс аэродрома: 
Принадлежность: 
МО
Статус: 
Действующий
Сайт: 
E-mail аэродрома: 
Страна: 
Россия
Регион: 
Иркутская область
Город: 
Дополнительная информация: 
Горный. Оператор: ВКС России. С 01.12.2009 200-й Гв. ТБАП переформирован в 6953-ю Гв. Авиабазу, которая в дальнейшем (в декабре 2010) переформирована в Гв. Авиагруппу 6952 Гвардейской Авиабазы (а/д Украинка). ГВПП (3000x100м) не поддерживается. Нкр.(500)м. ДПРС: 313-LM/GW,БПРМ: 153L/ G, VOR 6K. Военный индекс XIIB / ЬИИБ.

Найти трансфер

С помощью этой формы Вы можете найти трансфер из аэропорта Белая в город, аэропорт или вокзал:

Карта места

Javascript is required to view this map.

Погода в аэропортах:

Авиационная погода в аэропорту Сокол

Регион: 
Погода METAR: 
UHMM 171600Z 10007MPS 9999 -SHRA BKN015CB OVC025 08/06 Q1012 RMK QFE744 R28/13005MPS
Время наблюдения
2021-09-17T16:00:00Z
Температура C
8.0
Точка росы
6.0
Направление ветра
100
Скорость ветра (узлы)
14
Метео видимость
6.21
Явления погоды
-SHRA
Условия полета
MVFR
Аэропорт подробнее: 

Авиационная погода в Екатеринбурге

Регион: 
Погода METAR: 
USSS 171530Z 34002MPS 290V030 9999 -SHRA BKN019CB 07/04 Q1006 R26L/290050 R26R/290032 NOSIG RMK QFE734/0979
Время наблюдения
2021-09-17T15:30:00Z
Температура C
7.0
Точка росы
4.0
Направление ветра
340
Скорость ветра (узлы)
4
Метео видимость
6.21
Явления погоды
-SHRA
Условия полета
MVFR
Аэропорт подробнее: 

Авиационная погода в Курске

Погода METAR: 
UUOK 171530Z 08004MPS 9999 -RA NSC 10/08 Q1015 R12/290050 NOSIG RMK QFE743/0991
Время наблюдения
2021-09-17T15:30:00Z
Температура C
10.0
Точка росы
8.0
Направление ветра
80
Скорость ветра (узлы)
8
Метео видимость
6.21
Явления погоды
-RA
Условия полета
VFR
Аэропорт подробнее: 

Авиационная погода в Закаталы

Регион: 
Погода METAR: 
UBBY 171600Z 09008KT 9999 VCTS SCT035CB OVC080 20/17 Q1017 R33/////// NOSIG RMK MT OBSC
Время наблюдения
2021-09-17T16:00:00Z
Температура C
20.0
Точка росы
17.0
Направление ветра
90
Скорость ветра (узлы)
8
Метео видимость
6.21
Явления погоды
VCTS
Условия полета
VFR